Impacts METAR Board
IDs:

KIAH - Houston/Bush Intl, TX, US

Updated at: 0400 UTC 21 Jun 2021
Potential Impact None Slight Moderate High
Time 20/16Z 20/17Z 20/18Z 20/19Z 20/20Z 20/21Z 20/22Z 20/23Z 21/00Z 21/01Z 21/02Z 21/03Z 21/04Z
Temp89 90 92 91 93 87 90 90 87 86 85 84 83
Dewpt75 74 74 73 74 75 75 74 77 75 74 75 73
Altim29.85 29.85 29.83 29.83 29.81 29.82 29.80 29.79 29.80 29.80 29.82 29.82 29.85
VIS10 10 10 10 10 10 10 10 10 10 10 10 10
CIG250 250 70 250 250 250 250 250 250 250 250 250 250
CoverBKNBKNBKNBKNBKNBKNBKNBKNBKNBKNBKNBKNBKN
FltCatVFRVFRVFRVFRVFRVFRVFRVFRVFRVFRVFRVFRVFR
WX--------------------------
WDir230200190220200220170180160170160160170
WSpd4 5 9 7 7 7 8 9 8 11 14 10 9
WGst-- -- -- -- -- -- -- 16 -- -- 19 -- 16
R08/26
XWnd -3 -5 -9 -5 -7 -5 -8 -9 -8 -11 -13 -9 -9
XGst -- -- -- -- -- -- -- -16 -- -- -18 -- -16
HWnd -3 -2 -2 -4 -2 -4 1 0 3 2 5 3 2
HGst -- -- -- -- -- -- -- 0 -- -- 6 -- 3
R09/27
XWnd -3 -5 -9 -5 -7 -5 -8 -9 -8 -11 -13 -9 -9
XGst -- -- -- -- -- -- -- -16 -- -- -18 -- -16
HWnd -3 -2 -2 -4 -2 -4 1 0 3 2 5 3 2
HGst -- -- -- -- -- -- -- 0 -- -- 6 -- 3
R15/33
XWnd -4 -4 -6 -6 -5 -6 -2 -4 -1 -3 -2 -1 -3
XGst -- -- -- -- -- -- -- -8 -- -- -3 -- -5
HWnd 1 3 7 3 5 3 8 8 8 10 14 10 9
HGst -- -- -- -- -- -- -- 14 -- -- 19 -- 15
Raw hourly METARs
KIAH 201553Z 23004KT 10SM SCT025 SCT065 BKN250 32/24 A2985 RMK AO2 SLP108 T03170239
KIAH 201653Z 20005KT 10SM FEW032 SCT060 BKN250 32/23 A2985 RMK AO2 SLP108 T03220233
KIAH 201753Z 19009KT 10SM SCT040 BKN070 BKN250 33/23 A2983 RMK AO2 SLP100 T03330233 10339 20256 58014
KIAH 201853Z 22007KT 10SM SCT039 SCT065 BKN250 33/23 A2983 RMK AO2 SLP100 T03280228
KIAH 201953Z 20007KT 10SM FEW036 FEW065 BKN250 34/23 A2981 RMK AO2 LTG DSNT SW AND W SLP094 CB DSNT SW T03390233
KIAH 202053Z 22007KT 10SM SCT036 SCT130 BKN250 31/24 A2982 RMK AO2 SLP095 VCSH NW CB DSNT NE W AND NW MOV NE T03060239 55005
KIAH 202153Z 17008KT 10SM SCT035 SCT130 BKN250 32/24 A2980 RMK AO2 SLP090 T03220239
KIAH 202253Z 18009G16KT 10SM SCT035 BKN250 32/23 A2979 RMK AO2 SLP085 CB DSNT SE MOV N T03220233
KIAH 202353Z 16008KT 10SM SCT032 BKN250 31/25 A2980 RMK AO2 SLP091 TCU DSNT NE AND NW T03060250 10344 20294 55004
KIAH 210053Z 17011KT 10SM SCT030 SCT130 BKN250 30/24 A2980 RMK AO2 SLP089 T03000239
KIAH 210153Z 16014G19KT 10SM FEW025 SCT130 BKN250 29/23 A2982 RMK AO2 SLP096 T02940233
KIAH 210253Z 16010KT 10SM FEW023 FEW150 BKN250 29/24 A2982 RMK AO2 SLP097 T02890239 53006
KIAH 210353Z 17009G16KT 10SM FEW022 FEW150 BKN250 28/23 A2985 RMK AO2 SLP105 T02830228



Page loaded:  04:27 UTC  |   09:27 PM Pacific  |   10:27 PM Mountain  |   11:27 PM Central  |   12:27 AM Eastern

 

ADVISORIES

FORECASTS

FORECASTS

OBSERVATIONS

USER TOOLS

ABOUT US